createdAt,value
2018-06-30T00:00:16.733Z,20.96
2018-06-30T00:02:45.289Z,20.97
2018-06-30T00:05:16.510Z,20.89
2018-06-30T00:07:45.018Z,21.00
2018-06-30T00:10:18.553Z,21.02
2018-06-30T00:12:46.988Z,20.83
2018-06-30T00:15:15.616Z,20.77
2018-06-30T00:17:43.884Z,20.75
2018-06-30T00:20:12.476Z,20.83
2018-06-30T00:22:41.584Z,20.77
2018-06-30T00:25:09.906Z,20.76
2018-06-30T00:27:38.466Z,20.68
2018-06-30T00:30:07.025Z,20.63
2018-06-30T00:32:35.542Z,20.72
2018-06-30T00:35:04.333Z,20.62
2018-06-30T00:37:33.006Z,20.70
2018-06-30T00:40:01.604Z,20.61
2018-06-30T00:42:30.661Z,20.41
2018-06-30T00:44:59.681Z,20.46
2018-06-30T00:47:28.467Z,20.45
2018-06-30T00:49:57.198Z,20.48
2018-06-30T00:52:25.751Z,20.49
2018-06-30T00:54:54.465Z,20.44
2018-06-30T00:57:23.341Z,20.43
2018-06-30T00:59:52.100Z,20.24
2018-06-30T01:02:20.606Z,20.20
2018-06-30T01:04:49.038Z,20.10
2018-06-30T01:07:17.698Z,20.11
2018-06-30T01:09:46.173Z,20.10
2018-06-30T01:12:15.049Z,20.05
2018-06-30T01:14:43.773Z,20.04
2018-06-30T01:17:12.134Z,20.05
2018-06-30T01:19:40.841Z,20.02
2018-06-30T01:22:09.370Z,19.98
2018-06-30T01:24:38.192Z,19.84
2018-06-30T01:27:06.806Z,19.84
2018-06-30T01:29:35.435Z,19.81
2018-06-30T01:32:04.027Z,19.70
2018-06-30T01:34:33.249Z,19.66
2018-06-30T01:37:02.683Z,19.66
2018-06-30T01:39:31.340Z,19.64
2018-06-30T01:42:00.085Z,19.59
2018-06-30T01:44:28.573Z,19.63
2018-06-30T01:46:57.003Z,19.39
2018-06-30T01:49:25.596Z,19.38
2018-06-30T01:51:54.848Z,19.50
2018-06-30T01:54:23.642Z,19.50
2018-06-30T01:56:52.141Z,19.61
2018-06-30T01:59:20.882Z,19.48
2018-06-30T02:01:52.364Z,19.49
2018-06-30T02:04:20.869Z,19.48
2018-06-30T02:06:49.815Z,19.35
2018-06-30T02:09:18.324Z,19.34
2018-06-30T02:11:47.327Z,19.35
2018-06-30T02:14:15.749Z,19.31
2018-06-30T02:16:44.092Z,19.19
2018-06-30T02:19:12.623Z,19.27
2018-06-30T02:21:40.919Z,19.13
2018-06-30T02:24:09.612Z,19.20
2018-06-30T02:26:39.030Z,19.25
2018-06-30T02:29:07.929Z,19.29
2018-06-30T02:31:36.375Z,19.35
2018-06-30T02:34:05.547Z,19.34
2018-06-30T02:36:34.237Z,19.42
2018-06-30T02:39:03.213Z,19.38
2018-06-30T02:41:31.649Z,19.28
2018-06-30T02:44:00.352Z,19.13
2018-06-30T02:46:29.047Z,19.06
2018-06-30T02:48:57.600Z,19.00
2018-06-30T02:51:26.377Z,18.89
2018-06-30T02:53:55.000Z,18.97
2018-06-30T02:56:23.667Z,18.99
2018-06-30T02:58:52.925Z,19.11
2018-06-30T03:01:21.755Z,18.99
2018-06-30T03:03:50.539Z,18.99
2018-06-30T03:06:18.921Z,18.95
2018-06-30T03:08:47.550Z,18.99
2018-06-30T03:11:15.839Z,19.12
2018-06-30T03:13:44.326Z,19.01
2018-06-30T03:16:16.181Z,19.07
2018-06-30T03:18:45.862Z,18.91
2018-06-30T03:21:14.285Z,19.01
2018-06-30T03:23:43.058Z,19.03
2018-06-30T03:26:11.674Z,18.87
2018-06-30T03:28:40.432Z,18.79
2018-06-30T03:31:09.175Z,18.79
2018-06-30T03:33:37.680Z,18.78
2018-06-30T03:36:06.326Z,18.84
2018-06-30T03:38:34.943Z,18.85
2018-06-30T03:41:04.565Z,18.79
2018-06-30T03:43:32.969Z,18.84
2018-06-30T03:46:01.503Z,18.82
2018-06-30T03:48:29.888Z,19.01
2018-06-30T03:50:58.349Z,18.96
2018-06-30T03:53:27.265Z,18.81
2018-06-30T03:55:55.935Z,18.87
2018-06-30T03:58:24.346Z,18.94
2018-06-30T04:00:53.051Z,18.98
2018-06-30T04:03:22.604Z,18.84
2018-06-30T04:05:51.680Z,18.87
2018-06-30T04:08:20.298Z,18.97
2018-06-30T04:10:48.788Z,19.07
2018-06-30T04:13:17.284Z,19.14
2018-06-30T04:15:46.067Z,19.23
2018-06-30T04:18:14.661Z,19.35
2018-06-30T04:20:43.112Z,19.37
2018-06-30T04:23:11.870Z,19.49
2018-06-30T04:25:40.298Z,19.62
2018-06-30T04:28:09.197Z,19.63
2018-06-30T04:30:38.082Z,19.63
2018-06-30T04:33:10.058Z,19.70
2018-06-30T04:35:38.774Z,19.72
2018-06-30T04:38:07.416Z,19.66
2018-06-30T04:40:36.000Z,19.77
2018-06-30T04:43:04.730Z,19.88
2018-06-30T04:45:33.999Z,20.06
2018-06-30T04:48:02.675Z,19.80
2018-06-30T04:50:31.237Z,20.00
2018-06-30T04:52:59.850Z,19.99
2018-06-30T04:55:28.253Z,20.12
2018-06-30T04:57:56.533Z,20.20
2018-06-30T05:00:25.140Z,20.24
2018-06-30T05:02:53.627Z,20.19
2018-06-30T05:05:22.147Z,20.33
2018-06-30T05:07:50.601Z,20.51
2018-06-30T05:10:18.995Z,20.44
2018-06-30T05:12:47.767Z,20.42
2018-06-30T05:15:16.247Z,20.61
2018-06-30T05:17:44.847Z,20.74
2018-06-30T05:20:13.340Z,20.92
2018-06-30T05:22:41.825Z,20.81
2018-06-30T05:25:10.579Z,20.80
2018-06-30T05:27:39.128Z,21.00
2018-06-30T05:30:07.631Z,21.16
2018-06-30T05:32:40.302Z,21.39
2018-06-30T05:35:09.469Z,21.37
2018-06-30T05:37:37.865Z,21.20
2018-06-30T05:40:06.186Z,21.20
2018-06-30T05:42:34.653Z,21.30
2018-06-30T05:45:03.287Z,21.39
2018-06-30T05:47:43.931Z,21.49
2018-06-30T05:50:12.531Z,21.71
2018-06-30T05:52:40.997Z,21.78
2018-06-30T05:55:09.685Z,21.71
2018-06-30T05:57:38.504Z,21.83
2018-06-30T06:00:07.590Z,21.79
2018-06-30T06:02:35.997Z,21.66
2018-06-30T06:05:05.584Z,21.80
2018-06-30T06:07:33.951Z,21.83
2018-06-30T06:10:03.323Z,21.92
2018-06-30T06:12:31.868Z,22.06
2018-06-30T06:15:03.027Z,22.12
2018-06-30T06:17:31.547Z,22.22
2018-06-30T06:20:00.127Z,22.31
2018-06-30T06:22:31.545Z,22.48
2018-06-30T06:25:03.185Z,22.67
2018-06-30T06:27:31.727Z,22.74
2018-06-30T06:30:00.304Z,22.47
2018-06-30T06:32:28.911Z,22.44
2018-06-30T06:34:57.911Z,22.67
2018-06-30T06:37:26.240Z,22.77
2018-06-30T06:39:54.676Z,22.93
2018-06-30T06:42:23.169Z,22.73
2018-06-30T06:44:51.715Z,22.69
2018-06-30T06:47:20.512Z,22.69
2018-06-30T06:49:49.206Z,22.96
2018-06-30T06:52:17.698Z,22.69
2018-06-30T06:54:46.343Z,22.48
2018-06-30T06:57:14.999Z,22.62
2018-06-30T06:59:43.498Z,22.68
2018-06-30T07:02:11.980Z,22.86
2018-06-30T07:04:40.766Z,23.15
2018-06-30T07:07:09.822Z,23.29
2018-06-30T07:09:38.353Z,23.46
2018-06-30T07:12:06.865Z,23.52
2018-06-30T07:14:35.421Z,23.45
2018-06-30T07:17:04.007Z,23.62
2018-06-30T07:19:33.029Z,23.69
2018-06-30T07:22:02.127Z,23.70
2018-06-30T07:24:30.785Z,23.70
2018-06-30T07:26:59.403Z,23.65
2018-06-30T07:29:28.185Z,23.69
2018-06-30T07:31:56.841Z,23.84
2018-06-30T07:34:25.640Z,23.66
2018-06-30T07:36:54.149Z,23.93
2018-06-30T07:39:22.719Z,24.02
2018-06-30T07:41:51.476Z,24.22
2018-06-30T07:44:20.216Z,24.31
2018-06-30T07:46:48.771Z,24.37
2018-06-30T07:49:17.349Z,24.48
2018-06-30T07:51:46.396Z,24.48
2018-06-30T07:54:14.949Z,24.44
2018-06-30T07:56:43.816Z,24.53
2018-06-30T07:59:12.328Z,24.61
2018-06-30T08:01:40.839Z,24.40
2018-06-30T08:04:09.338Z,24.31
2018-06-30T08:06:37.975Z,24.31
2018-06-30T08:09:09.583Z,24.39
2018-06-30T08:11:39.041Z,24.05
2018-06-30T08:14:07.636Z,24.06
2018-06-30T08:16:36.195Z,24.36
2018-06-30T08:19:05.636Z,24.63
2018-06-30T08:21:34.904Z,24.56
2018-06-30T08:24:04.720Z,24.63
2018-06-30T08:26:34.194Z,24.42
2018-06-30T08:29:05.376Z,24.53
2018-06-30T08:31:33.955Z,24.28
2018-06-30T08:34:05.397Z,24.69
2018-06-30T08:36:38.171Z,24.68
2018-06-30T08:39:11.468Z,24.64
2018-06-30T08:41:41.141Z,24.89
2018-06-30T08:44:09.721Z,25.11
2018-06-30T08:46:38.922Z,25.18
2018-06-30T08:49:08.183Z,25.29
2018-06-30T08:51:36.939Z,25.23
2018-06-30T08:54:06.085Z,25.33
2018-06-30T08:56:35.641Z,25.61
2018-06-30T08:59:05.019Z,25.58
2018-06-30T09:01:34.298Z,25.64
2018-06-30T09:04:03.837Z,25.47
2018-06-30T09:06:33.279Z,25.49
2018-06-30T09:09:06.271Z,25.59
2018-06-30T09:11:35.644Z,25.85
2018-06-30T09:14:04.735Z,25.82
2018-06-30T09:16:34.684Z,25.83
2018-06-30T09:19:06.198Z,25.84
2018-06-30T09:21:35.060Z,25.97
2018-06-30T09:24:04.389Z,25.96
2018-06-30T09:26:33.728Z,25.85
2018-06-30T09:29:05.146Z,25.66
2018-06-30T09:31:34.662Z,25.98
2018-06-30T09:34:05.241Z,26.03
2018-06-30T09:36:34.441Z,25.90
2018-06-30T09:39:04.192Z,25.77
2018-06-30T09:41:33.385Z,25.72
2018-06-30T09:44:04.529Z,25.91
2018-06-30T09:46:33.672Z,25.98
2018-06-30T09:49:04.542Z,26.05
2018-06-30T09:51:34.218Z,26.22
2018-06-30T09:54:03.810Z,26.13
2018-06-30T09:56:33.139Z,26.26
2018-06-30T09:59:05.166Z,26.31
2018-06-30T10:01:35.442Z,26.27
2018-06-30T10:04:06.210Z,26.45
2018-06-30T10:06:35.464Z,26.45
2018-06-30T10:09:07.388Z,26.48
2018-06-30T10:11:37.207Z,26.27
2018-06-30T10:14:07.117Z,26.42
2018-06-30T10:16:37.424Z,26.26
2018-06-30T10:19:06.679Z,26.46
2018-06-30T10:21:35.931Z,26.44
2018-06-30T10:24:06.198Z,26.37
2018-06-30T10:26:34.948Z,26.40
2018-06-30T10:29:04.912Z,26.62
2018-06-30T10:31:33.552Z,26.42
2018-06-30T10:34:04.329Z,26.55
2018-06-30T10:36:33.834Z,26.42
2018-06-30T10:39:06.380Z,26.29
2018-06-30T10:41:35.142Z,26.55
2018-06-30T10:44:05.439Z,26.53
2018-06-30T10:46:35.652Z,26.48
2018-06-30T10:49:05.556Z,26.51
2018-06-30T10:51:35.431Z,26.45
2018-06-30T10:54:05.009Z,26.60
2018-06-30T10:56:34.060Z,26.75
2018-06-30T10:59:03.358Z,26.98
2018-06-30T11:01:32.759Z,26.84
2018-06-30T11:04:03.016Z,26.88
2018-06-30T11:06:32.225Z,26.88
2018-06-30T11:09:02.454Z,26.94
2018-06-30T11:11:33.381Z,26.91
2018-06-30T11:14:04.074Z,26.94
2018-06-30T11:16:33.831Z,26.84
2018-06-30T11:19:04.301Z,27.06
2018-06-30T11:21:34.661Z,27.26
2018-06-30T11:24:04.482Z,27.20
2018-06-30T11:26:33.801Z,26.83
2018-06-30T11:29:03.839Z,26.80
2018-06-30T11:31:34.237Z,26.86
2018-06-30T11:34:03.829Z,26.95
2018-06-30T11:36:33.185Z,26.96
2018-06-30T11:39:08.519Z,27.23
2018-06-30T11:41:37.479Z,27.40
2018-06-30T11:44:06.048Z,27.47
2018-06-30T11:46:35.565Z,27.31
2018-06-30T11:49:05.012Z,27.29
2018-06-30T11:51:35.315Z,27.39
2018-06-30T11:54:05.048Z,27.05
2018-06-30T11:56:34.611Z,26.99
2018-06-30T11:59:04.056Z,27.21
2018-06-30T12:01:34.034Z,27.09
2018-06-30T12:04:05.017Z,27.31
2018-06-30T12:06:34.258Z,27.59
2018-06-30T12:09:05.569Z,27.53
2018-06-30T12:11:35.322Z,27.35
2018-06-30T12:14:06.237Z,27.34
2018-06-30T12:16:35.382Z,27.22
2018-06-30T12:19:05.944Z,27.25
2018-06-30T12:21:35.598Z,27.31
2018-06-30T12:24:06.368Z,27.22
2018-06-30T12:26:35.689Z,27.40
2018-06-30T12:29:05.295Z,27.34
2018-06-30T12:31:35.179Z,27.50
2018-06-30T12:34:04.764Z,27.65
2018-06-30T12:36:34.227Z,27.63
2018-06-30T12:39:06.424Z,27.67
2018-06-30T12:41:36.231Z,27.80
2018-06-30T12:44:05.179Z,27.82
2018-06-30T12:46:34.432Z,27.73
2018-06-30T12:49:04.205Z,27.91
2018-06-30T12:51:34.116Z,27.95
2018-06-30T12:54:03.738Z,27.80
2018-06-30T12:56:33.300Z,27.74
2018-06-30T12:59:04.525Z,27.57
2018-06-30T13:01:33.372Z,27.70
2018-06-30T13:04:03.604Z,27.59
2018-06-30T13:06:34.359Z,27.88
2018-06-30T13:09:07.996Z,28.05
2018-06-30T13:11:36.652Z,28.09
2018-06-30T13:14:06.491Z,28.25
2018-06-30T13:16:36.016Z,28.43
2018-06-30T13:19:06.595Z,28.35
2018-06-30T13:21:35.845Z,28.55
2018-06-30T13:24:05.836Z,28.20
2018-06-30T13:26:35.311Z,28.29
2018-06-30T13:29:04.757Z,28.42
2018-06-30T13:31:33.794Z,28.29
2018-06-30T13:34:04.871Z,28.37
2018-06-30T13:36:34.396Z,28.73
2018-06-30T13:39:06.533Z,28.81
2018-06-30T13:41:36.053Z,29.14
2018-06-30T13:44:06.760Z,29.60
2018-06-30T13:46:35.437Z,29.48
2018-06-30T13:49:05.511Z,29.36
2018-06-30T13:51:34.491Z,29.43
2018-06-30T13:54:06.274Z,29.47
2018-06-30T13:56:35.269Z,29.62
2018-06-30T13:59:05.401Z,29.74
2018-06-30T14:01:34.619Z,29.87
2018-06-30T14:04:03.960Z,29.68
2018-06-30T14:06:33.541Z,29.75
2018-06-30T14:09:06.305Z,30.20
2018-06-30T14:11:35.199Z,29.87
2018-06-30T14:14:05.858Z,29.72
2018-06-30T14:16:34.979Z,29.74
2018-06-30T14:19:04.112Z,29.19
2018-06-30T14:21:33.053Z,29.14
2018-06-30T14:24:04.057Z,29.49
2018-06-30T14:26:34.644Z,29.15
2018-06-30T14:29:05.169Z,29.51
2018-06-30T14:31:34.860Z,29.39
2018-06-30T14:34:06.077Z,29.41
2018-06-30T14:36:35.239Z,29.41
2018-06-30T14:39:07.268Z,29.77
2018-06-30T14:41:36.366Z,29.78
2018-06-30T14:44:06.255Z,29.92
2018-06-30T14:46:36.125Z,30.51
2018-06-30T14:49:06.280Z,30.28
2018-06-30T14:51:35.742Z,30.22
2018-06-30T14:54:05.840Z,30.09
2018-06-30T14:56:35.404Z,30.44
2018-06-30T14:59:06.094Z,30.24
2018-06-30T15:01:35.868Z,30.42
2018-06-30T15:04:08.024Z,30.39
2018-06-30T15:06:37.026Z,30.37
2018-06-30T15:09:11.536Z,30.40
2018-06-30T15:11:41.212Z,30.59
2018-06-30T15:14:10.108Z,30.69
2018-06-30T15:16:39.590Z,30.89
2018-06-30T15:19:08.828Z,31.56
2018-06-30T15:21:37.612Z,31.97
2018-06-30T15:24:13.357Z,31.26
2018-06-30T15:26:42.159Z,30.69
2018-06-30T15:29:10.775Z,30.88
2018-06-30T15:31:39.608Z,30.59
2018-06-30T15:34:08.207Z,30.09
2018-06-30T15:36:36.633Z,29.63
2018-06-30T15:39:08.963Z,29.54
2018-06-30T15:41:37.673Z,29.42
2018-06-30T15:44:07.013Z,29.11
2018-06-30T15:46:36.158Z,28.91
2018-06-30T15:49:05.916Z,28.70
2018-06-30T15:51:35.397Z,28.65
2018-06-30T15:54:05.374Z,28.47
2018-06-30T15:56:34.637Z,28.43
2018-06-30T15:59:10.280Z,28.43
2018-06-30T16:01:38.944Z,28.48
2018-06-30T16:04:07.787Z,28.46
2018-06-30T16:06:42.024Z,28.24
2018-06-30T16:09:13.632Z,28.29
2018-06-30T16:11:47.496Z,28.33
2018-06-30T16:14:23.176Z,28.23
2018-06-30T16:19:12.568Z,28.20
2018-06-30T16:21:41.018Z,28.26
2018-06-30T16:24:09.713Z,28.29
2018-06-30T16:26:41.376Z,28.29
2018-06-30T16:29:10.131Z,28.14
2018-06-30T16:31:38.768Z,28.23
2018-06-30T16:34:08.723Z,28.16
2018-06-30T16:36:37.935Z,28.05
2018-06-30T16:39:09.821Z,27.99
2018-06-30T16:41:39.778Z,28.09
2018-06-30T16:44:08.333Z,28.14
2018-06-30T16:46:37.453Z,28.07
2018-06-30T16:49:06.720Z,28.10
2018-06-30T16:51:35.284Z,28.04
2018-06-30T16:54:04.374Z,27.94
2018-06-30T16:56:33.231Z,27.95
2018-06-30T16:59:01.904Z,28.00
2018-06-30T17:01:30.672Z,28.00
2018-06-30T17:03:59.891Z,27.98
2018-06-30T17:06:28.442Z,27.85
2018-06-30T17:08:57.003Z,27.81
2018-06-30T17:11:25.561Z,27.84
2018-06-30T17:13:54.144Z,27.82
2018-06-30T17:16:22.612Z,27.74
2018-06-30T17:18:51.284Z,27.76
2018-06-30T17:21:19.829Z,27.68
2018-06-30T17:23:48.375Z,27.74
2018-06-30T17:26:17.127Z,27.68
2018-06-30T17:28:45.765Z,27.63
2018-06-30T17:31:14.411Z,27.61
2018-06-30T17:33:43.676Z,27.57
2018-06-30T17:36:12.204Z,27.59
2018-06-30T17:38:41.016Z,27.66
2018-06-30T17:41:09.652Z,27.74
2018-06-30T17:43:38.314Z,27.65
2018-06-30T17:46:07.230Z,27.64
2018-06-30T17:48:35.827Z,27.54
2018-06-30T17:51:04.507Z,27.56
2018-06-30T17:53:33.185Z,27.55
2018-06-30T17:56:01.496Z,27.43
2018-06-30T17:58:30.059Z,27.28
2018-06-30T18:00:58.619Z,27.24
2018-06-30T18:03:27.165Z,27.21
2018-06-30T18:05:55.525Z,27.21
2018-06-30T18:08:24.028Z,27.15
2018-06-30T18:10:52.421Z,27.13
2018-06-30T18:13:21.096Z,27.04
2018-06-30T18:15:49.436Z,27.01
2018-06-30T18:18:18.129Z,27.00
2018-06-30T18:20:46.831Z,26.95
2018-06-30T18:23:15.412Z,26.96
2018-06-30T18:25:44.369Z,26.94
2018-06-30T18:28:12.863Z,26.89
2018-06-30T18:30:41.435Z,26.87
2018-06-30T18:33:09.911Z,26.85
2018-06-30T18:35:38.877Z,26.83
2018-06-30T18:38:07.699Z,26.85
2018-06-30T18:40:36.528Z,26.77
2018-06-30T18:43:05.401Z,26.70
2018-06-30T18:45:34.150Z,26.68
2018-06-30T18:48:02.982Z,26.67
2018-06-30T18:50:31.837Z,26.63
2018-06-30T18:53:00.551Z,26.58
2018-06-30T18:55:29.100Z,26.52
2018-06-30T18:57:57.806Z,26.50
2018-06-30T19:00:26.299Z,26.42
2018-06-30T19:02:54.902Z,26.43
2018-06-30T19:05:23.563Z,26.41
2018-06-30T19:07:52.085Z,26.39
2018-06-30T19:10:20.603Z,26.37
2018-06-30T19:12:49.139Z,26.29
2018-06-30T19:15:17.744Z,26.20
2018-06-30T19:17:46.306Z,26.17
2018-06-30T19:20:15.401Z,26.22
2018-06-30T19:22:44.696Z,26.13
2018-06-30T19:25:13.344Z,26.08
2018-06-30T19:27:42.276Z,25.98
2018-06-30T19:30:11.279Z,25.96
2018-06-30T19:32:40.260Z,25.95
2018-06-30T19:35:08.897Z,25.92
2018-06-30T19:37:37.438Z,25.85
2018-06-30T19:40:06.377Z,25.91
2018-06-30T19:42:35.629Z,25.81
2018-06-30T19:45:04.912Z,25.71
2018-06-30T19:47:35.572Z,25.72
2018-06-30T19:50:05.331Z,25.61
2018-06-30T19:52:34.881Z,25.59
2018-06-30T19:55:04.442Z,25.53
2018-06-30T19:57:34.125Z,25.50
2018-06-30T20:00:03.123Z,25.47
2018-06-30T20:02:31.985Z,25.39
2018-06-30T20:05:00.957Z,25.29
2018-06-30T20:07:34.153Z,25.29
2018-06-30T20:10:04.580Z,25.26
2018-06-30T20:12:34.222Z,25.19
2018-06-30T20:15:03.213Z,25.09
2018-06-30T20:17:33.073Z,25.00
2018-06-30T20:20:03.133Z,24.88
2018-06-30T20:22:32.148Z,24.87
2018-06-30T20:25:01.116Z,24.91
2018-06-30T20:27:30.249Z,24.95
2018-06-30T20:29:58.817Z,24.89
2018-06-30T20:32:28.570Z,24.74
2018-06-30T20:34:58.845Z,24.64
2018-06-30T20:37:28.730Z,24.66
2018-06-30T20:39:58.336Z,24.61
2018-06-30T20:42:27.888Z,24.57
2018-06-30T20:44:58.061Z,24.50
2018-06-30T20:47:27.971Z,24.45
2018-06-30T20:49:57.339Z,24.37
2018-06-30T20:52:27.290Z,24.31
2018-06-30T20:54:55.896Z,24.29
2018-06-30T20:57:24.409Z,24.32
2018-06-30T20:59:52.997Z,24.22
2018-06-30T21:02:21.761Z,24.13
2018-06-30T21:04:50.522Z,24.11
2018-06-30T21:07:19.329Z,24.09
2018-06-30T21:09:47.946Z,24.03
2018-06-30T21:12:16.305Z,23.96
2018-06-30T21:14:45.205Z,23.85
2018-06-30T21:17:13.773Z,23.82
2018-06-30T21:19:42.332Z,23.72
2018-06-30T21:22:11.056Z,23.77
2018-06-30T21:24:39.504Z,23.71
2018-06-30T21:27:08.445Z,23.66
2018-06-30T21:29:36.703Z,23.65
2018-06-30T21:32:06.084Z,23.61
2018-06-30T21:34:34.888Z,23.58
2018-06-30T21:37:05.001Z,23.53
2018-06-30T21:39:34.660Z,23.48
2018-06-30T21:42:03.719Z,23.47
2018-06-30T21:44:33.496Z,23.42
2018-06-30T21:47:02.946Z,23.40
2018-06-30T21:49:32.730Z,23.35
2018-06-30T21:52:01.532Z,23.28
2018-06-30T21:54:30.063Z,23.21
2018-06-30T21:56:58.824Z,23.18
2018-06-30T21:59:27.300Z,23.13
2018-06-30T22:01:56.082Z,23.05
2018-06-30T22:04:25.458Z,23.10
2018-06-30T22:06:55.126Z,23.10
2018-06-30T22:09:24.037Z,23.12
2018-06-30T22:11:52.913Z,23.09
2018-06-30T22:14:21.805Z,23.03
2018-06-30T22:16:55.120Z,22.88
2018-06-30T22:19:23.636Z,22.88
2018-06-30T22:21:52.189Z,22.85
2018-06-30T22:24:20.700Z,22.85
2018-06-30T22:26:49.368Z,22.82
2018-06-30T22:29:18.219Z,22.72
2018-06-30T22:31:46.559Z,22.61
2018-06-30T22:34:15.078Z,22.62
2018-06-30T22:36:43.421Z,22.59
2018-06-30T22:39:12.258Z,22.49
2018-06-30T22:41:40.886Z,22.46
2018-06-30T22:44:09.360Z,22.39
2018-06-30T22:46:37.900Z,22.33
2018-06-30T22:49:07.379Z,22.29
2018-06-30T22:51:37.011Z,22.21
2018-06-30T22:54:06.387Z,22.13
2018-06-30T22:56:35.924Z,22.10
2018-06-30T22:59:05.045Z,22.02
2018-06-30T23:01:34.479Z,22.03
2018-06-30T23:04:03.730Z,22.04
2018-06-30T23:06:33.069Z,22.05
2018-06-30T23:09:02.389Z,21.94
2018-06-30T23:11:31.437Z,21.86
2018-06-30T23:14:00.393Z,21.88
2018-06-30T23:16:29.104Z,21.81
2018-06-30T23:18:58.776Z,21.80
2018-06-30T23:21:28.292Z,21.80
2018-06-30T23:23:57.289Z,21.72
2018-06-30T23:26:26.437Z,21.59
2018-06-30T23:28:55.196Z,21.66
2018-06-30T23:31:24.354Z,21.68
2018-06-30T23:33:54.371Z,21.73
2018-06-30T23:36:22.932Z,21.66
2018-06-30T23:38:51.730Z,21.74
2018-06-30T23:41:20.433Z,21.73
2018-06-30T23:43:49.325Z,21.54
2018-06-30T23:46:18.091Z,21.68
2018-06-30T23:48:46.686Z,21.72
2018-06-30T23:51:15.298Z,21.60
2018-06-30T23:53:44.021Z,21.53
2018-06-30T23:56:12.583Z,21.46
2018-06-30T23:58:41.086Z,21.40
